createdAt,value
2018-09-08T00:00:46.594Z,512.70
2018-09-08T00:01:46.634Z,476.10
2018-09-08T00:02:46.990Z,489.00
2018-09-08T00:03:46.735Z,481.10
2018-09-08T00:04:46.786Z,477.00
2018-09-08T00:05:46.807Z,500.30
2018-09-08T00:06:46.844Z,496.50
2018-09-08T00:07:46.925Z,495.20
2018-09-08T00:08:46.947Z,505.50
2018-09-08T00:09:47.313Z,530.90
2018-09-08T00:10:47.035Z,524.40
2018-09-08T00:11:47.109Z,503.00
2018-09-08T00:12:47.094Z,523.30
2018-09-08T00:13:47.151Z,511.50
2018-09-08T00:14:47.182Z,524.90
2018-09-08T00:15:47.536Z,515.70
2018-09-08T00:16:47.286Z,518.40
2018-09-08T00:17:47.324Z,533.30
2018-09-08T00:18:47.372Z,540.40
2018-09-08T00:19:47.406Z,545.90
2018-09-08T00:20:47.462Z,558.00
2018-09-08T00:21:47.801Z,578.70
2018-09-08T00:22:47.829Z,575.10
2018-09-08T00:23:47.579Z,583.30
2018-09-08T00:24:47.644Z,585.70
2018-09-08T00:25:47.677Z,618.80
2018-09-08T00:26:47.714Z,613.40
2018-09-08T00:27:47.744Z,637.70
2018-09-08T00:28:47.797Z,581.80
2018-09-08T00:29:47.817Z,618.00
2018-09-08T00:30:47.881Z,618.70
2018-09-08T00:31:47.943Z,585.40
2018-09-08T00:32:47.946Z,624.60
2018-09-08T00:33:47.993Z,581.00
2018-09-08T00:34:48.093Z,604.40
2018-09-08T00:35:48.094Z,598.50
2018-09-08T00:36:48.174Z,620.10
2018-09-08T00:37:48.186Z,664.30
2018-09-08T00:38:48.274Z,611.70
2018-09-08T00:39:48.251Z,658.00
2018-09-08T00:40:48.286Z,659.10
2018-09-08T00:41:48.349Z,628.70
2018-09-08T00:42:48.410Z,648.40
2018-09-08T00:43:48.727Z,653.60
2018-09-08T00:44:48.492Z,637.60
2018-09-08T00:45:48.582Z,662.00
2018-09-08T00:46:48.553Z,651.30
2018-09-08T00:47:48.607Z,655.20
2018-09-08T00:48:48.646Z,635.70
2018-09-08T00:49:48.703Z,636.20
2018-09-08T00:50:48.769Z,657.40
2018-09-08T00:51:48.789Z,618.10
2018-09-08T00:52:48.804Z,617.40
2018-09-08T00:53:49.161Z,583.80
2018-09-08T00:54:48.916Z,600.20
2018-09-08T00:55:48.920Z,606.80
2018-09-08T00:56:48.985Z,619.70
2018-09-08T00:57:49.063Z,622.80
2018-09-08T00:58:49.078Z,609.30
2018-09-08T00:59:49.126Z,620.80
2018-09-08T01:00:49.476Z,636.50
2018-09-08T01:01:49.213Z,637.10
2018-09-08T01:02:49.259Z,641.50
2018-09-08T01:03:49.406Z,648.10
2018-09-08T01:04:49.327Z,598.50
2018-09-08T01:05:49.373Z,612.00
2018-09-08T01:06:49.401Z,635.80
2018-09-08T01:07:49.454Z,612.40
2018-09-08T01:08:49.543Z,620.60
2018-09-08T01:09:49.549Z,634.40
2018-09-08T01:10:49.551Z,616.20
2018-09-08T01:11:49.633Z,623.50
2018-09-08T01:12:49.664Z,616.20
2018-09-08T01:13:49.690Z,628.00
2018-09-08T01:14:49.740Z,601.80
2018-09-08T01:15:50.091Z,617.90
2018-09-08T01:16:49.810Z,622.30
2018-09-08T01:17:49.877Z,615.00
2018-09-08T01:18:49.932Z,588.60
2018-09-08T01:19:49.948Z,600.10
2018-09-08T01:20:49.991Z,619.80
2018-09-08T01:21:50.079Z,613.50
2018-09-08T01:22:50.138Z,623.30
2018-09-08T01:23:50.117Z,574.00
2018-09-08T01:24:50.171Z,604.00
2018-09-08T01:25:50.489Z,620.00
2018-09-08T01:26:50.290Z,596.50
2018-09-08T01:27:55.336Z,610.30
2018-09-08T01:28:50.311Z,570.70
2018-09-08T01:29:50.374Z,580.50
2018-09-08T01:30:50.419Z,570.60
2018-09-08T01:31:50.449Z,568.60
2018-09-08T01:32:50.485Z,583.90
2018-09-08T01:33:50.518Z,562.00
2018-09-08T01:34:50.574Z,569.50
2018-09-08T01:35:50.910Z,582.50
2018-09-08T01:36:50.681Z,596.30
2018-09-08T01:37:50.726Z,613.30
2018-09-08T01:38:50.747Z,572.30
2018-09-08T01:39:50.812Z,578.10
2018-09-08T01:40:50.853Z,589.90
2018-09-08T01:41:50.867Z,589.60
2018-09-08T01:42:50.913Z,601.50
2018-09-08T01:43:50.979Z,587.90
2018-09-08T01:44:50.979Z,595.50
2018-09-08T01:45:51.043Z,610.10
2018-09-08T01:46:51.383Z,585.60
2018-09-08T01:47:51.137Z,610.40
2018-09-08T01:48:51.171Z,629.80
2018-09-08T01:49:51.201Z,600.30
2018-09-08T01:50:51.252Z,593.30
2018-09-08T01:51:51.289Z,608.80
2018-09-08T01:52:51.636Z,611.50
2018-09-08T01:53:51.408Z,605.30
2018-09-08T01:54:51.426Z,615.60
2018-09-08T01:55:51.456Z,597.70
2018-09-08T01:56:51.500Z,603.30
2018-09-08T01:57:51.542Z,594.50
2018-09-08T01:58:51.892Z,637.60
2018-09-08T01:59:51.634Z,602.30
2018-09-08T02:00:51.672Z,612.90
2018-09-08T02:01:51.690Z,616.30
2018-09-08T02:02:51.748Z,610.20
2018-09-08T02:03:51.826Z,606.50
2018-09-08T02:04:51.873Z,612.80
2018-09-08T02:05:51.876Z,590.60
2018-09-08T02:06:51.915Z,613.30
2018-09-08T02:07:51.957Z,599.90
2018-09-08T02:08:52.282Z,593.80
2018-09-08T02:09:52.043Z,616.70
2018-09-08T02:10:52.061Z,612.20
2018-09-08T02:11:52.168Z,609.10
2018-09-08T02:12:52.172Z,626.60
2018-09-08T02:13:52.173Z,612.80
2018-09-08T02:14:52.521Z,620.90
2018-09-08T02:15:52.261Z,612.40
2018-09-08T02:16:52.322Z,611.40
2018-09-08T02:17:52.373Z,609.90
2018-09-08T02:18:52.399Z,627.70
2018-09-08T02:19:52.499Z,603.10
2018-09-08T02:20:52.525Z,618.40
2018-09-08T02:21:52.527Z,623.00
2018-09-08T02:22:52.565Z,620.20
2018-09-08T02:23:52.651Z,629.00
2018-09-08T02:24:52.646Z,609.80
2018-09-08T02:25:52.999Z,608.00
2018-09-08T02:26:52.725Z,624.10
2018-09-08T02:27:52.762Z,599.00
2018-09-08T02:28:52.803Z,580.70
2018-09-08T02:29:52.864Z,596.80
2018-09-08T02:30:52.894Z,597.40
2018-09-08T02:31:52.957Z,592.80
2018-09-08T02:32:52.996Z,573.70
2018-09-08T02:33:53.016Z,561.90
2018-09-08T02:34:53.049Z,570.90
2018-09-08T02:35:53.089Z,583.00
2018-09-08T02:36:53.151Z,592.00
2018-09-08T02:37:53.429Z,565.30
2018-09-08T02:38:53.219Z,562.90
2018-09-08T02:39:53.264Z,587.60
2018-09-08T02:40:53.302Z,584.70
2018-09-08T02:41:53.357Z,594.80
2018-09-08T02:42:53.398Z,559.30
2018-09-08T02:43:53.704Z,564.90
2018-09-08T02:44:53.493Z,566.00
2018-09-08T02:45:53.524Z,548.20
2018-09-08T02:46:53.574Z,567.40
2018-09-08T02:47:53.602Z,526.80
2018-09-08T02:48:53.640Z,538.90
2018-09-08T02:49:53.697Z,547.30
2018-09-08T02:50:53.742Z,534.90
2018-09-08T02:51:53.779Z,513.70
2018-09-08T02:52:53.810Z,503.30
2018-09-08T02:53:54.112Z,504.10
2018-09-08T02:54:53.894Z,519.00
2018-09-08T02:55:53.932Z,499.10
2018-09-08T02:56:53.979Z,505.00
2018-09-08T02:57:54.003Z,491.10
2018-09-08T02:58:54.340Z,497.70
2018-09-08T02:59:54.101Z,482.00
2018-09-08T03:00:54.141Z,508.20
2018-09-08T03:01:54.190Z,530.90
2018-09-08T03:02:54.229Z,519.60
2018-09-08T03:03:54.513Z,502.60
2018-09-08T03:04:54.318Z,542.80
2018-09-08T03:05:54.346Z,520.60
2018-09-08T03:06:54.408Z,516.50
2018-09-08T03:07:54.491Z,506.10
2018-09-08T03:08:54.625Z,506.60
2018-09-08T03:09:54.505Z,520.20
2018-09-08T03:10:54.590Z,514.10
2018-09-08T03:11:54.599Z,495.30
2018-09-08T03:12:54.664Z,486.60
2018-09-08T03:13:54.983Z,478.50
2018-09-08T03:14:54.776Z,480.20
2018-09-08T03:15:54.763Z,458.00
2018-09-08T03:16:54.824Z,442.00
2018-09-08T03:17:54.871Z,492.30
2018-09-08T03:18:54.894Z,479.10
2018-09-08T03:19:54.955Z,493.90
2018-09-08T03:20:55.016Z,475.10
2018-09-08T03:21:55.011Z,488.00
2018-09-08T03:22:55.096Z,480.40
2018-09-08T03:23:55.359Z,478.80
2018-09-08T03:24:55.153Z,469.90
2018-09-08T03:25:55.168Z,476.10
2018-09-08T03:26:55.217Z,484.00
2018-09-08T03:27:55.259Z,496.30
2018-09-08T03:28:55.302Z,499.40
2018-09-08T03:29:55.399Z,482.60
2018-09-08T03:30:55.399Z,453.90
2018-09-08T03:31:55.477Z,469.00
2018-09-08T03:32:55.466Z,477.10
2018-09-08T03:33:55.548Z,456.30
2018-09-08T03:34:55.911Z,455.90
2018-09-08T03:35:55.584Z,447.60
2018-09-08T03:36:55.660Z,482.10
2018-09-08T03:37:55.712Z,466.80
2018-09-08T03:38:55.729Z,462.40
2018-09-08T03:39:55.770Z,474.60
2018-09-08T03:40:55.820Z,456.70
2018-09-08T03:41:55.892Z,453.60
2018-09-08T03:42:55.890Z,460.00
2018-09-08T03:43:55.940Z,455.10
2018-09-08T03:44:55.973Z,462.10
2018-09-08T03:45:56.016Z,447.40
2018-09-08T03:46:56.068Z,434.80
2018-09-08T03:47:56.104Z,468.20
2018-09-08T03:48:56.137Z,466.20
2018-09-08T03:49:56.169Z,464.20
2018-09-08T03:50:56.765Z,459.60
2018-09-08T03:51:56.273Z,453.70
2018-09-08T03:52:56.309Z,451.40
2018-09-08T03:53:56.385Z,467.30
2018-09-08T03:54:56.388Z,463.90
2018-09-08T03:55:56.427Z,449.20
2018-09-08T03:56:56.465Z,447.40
2018-09-08T03:57:56.520Z,455.40
2018-09-08T03:58:56.586Z,449.80
2018-09-08T03:59:56.633Z,443.20
2018-09-08T04:00:56.625Z,464.30
2018-09-08T04:01:56.911Z,446.60
2018-09-08T04:02:56.713Z,455.70
2018-09-08T04:03:56.783Z,446.30
2018-09-08T04:04:56.845Z,472.70
2018-09-08T04:05:56.838Z,436.70
2018-09-08T04:06:56.925Z,452.40
2018-09-08T04:07:56.919Z,453.40
2018-09-08T04:08:57.020Z,450.40
2018-09-08T04:09:57.015Z,458.80
2018-09-08T04:10:57.055Z,447.20
2018-09-08T04:11:57.074Z,459.90
2018-09-08T04:12:57.140Z,443.50
2018-09-08T04:13:57.407Z,450.00
2018-09-08T04:14:57.205Z,430.30
2018-09-08T04:15:57.297Z,434.20
2018-09-08T04:16:57.290Z,430.00
2018-09-08T04:17:57.392Z,422.00
2018-09-08T04:18:57.397Z,415.60
2018-09-08T04:19:57.536Z,407.80
2018-09-08T04:20:57.478Z,412.20
2018-09-08T04:21:57.501Z,425.70
2018-09-08T04:22:57.547Z,460.40
2018-09-08T04:23:57.601Z,464.70
2018-09-08T04:24:57.896Z,457.30
2018-09-08T04:25:57.720Z,430.70
2018-09-08T04:26:57.725Z,457.20
2018-09-08T04:27:57.756Z,446.50
2018-09-08T04:28:57.807Z,445.30
2018-09-08T04:29:57.833Z,451.00
2018-09-08T04:30:57.891Z,430.90
2018-09-08T04:31:58.246Z,452.90
2018-09-08T04:32:58.020Z,449.50
2018-09-08T04:33:58.012Z,459.50
2018-09-08T04:34:58.047Z,435.60
2018-09-08T04:35:58.098Z,459.70
2018-09-08T04:36:58.138Z,457.80
2018-09-08T04:37:58.417Z,464.90
2018-09-08T04:38:58.223Z,457.00
2018-09-08T04:39:58.257Z,478.30
2018-09-08T04:40:58.337Z,461.60
2018-09-08T04:41:58.372Z,447.80
2018-09-08T04:42:58.386Z,455.30
2018-09-08T04:43:58.438Z,465.20
2018-09-08T04:44:58.453Z,457.90
2018-09-08T04:45:58.504Z,475.90
2018-09-08T04:46:58.560Z,464.00
2018-09-08T04:47:58.894Z,488.60
2018-09-08T04:48:58.633Z,466.00
2018-09-08T04:49:58.660Z,467.30
2018-09-08T04:50:58.700Z,485.30
2018-09-08T04:51:58.770Z,462.30
2018-09-08T04:52:58.809Z,474.60
2018-09-08T04:53:59.094Z,454.10
2018-09-08T04:54:58.890Z,475.60
2018-09-08T04:55:58.914Z,485.10
2018-09-08T04:56:58.993Z,489.40
2018-09-08T04:57:59.001Z,481.60
2018-09-08T04:58:59.054Z,475.30
2018-09-08T04:59:59.100Z,463.70
2018-09-08T05:00:59.208Z,476.90
2018-09-08T05:01:59.179Z,449.10
2018-09-08T05:02:59.221Z,470.80
2018-09-08T05:03:59.254Z,481.90
2018-09-08T05:04:59.334Z,471.30
2018-09-08T05:05:59.599Z,477.00
2018-09-08T05:06:59.363Z,476.10
2018-09-08T05:07:59.400Z,471.00
2018-09-08T05:08:59.472Z,483.70
2018-09-08T05:09:59.511Z,474.90
2018-09-08T05:10:59.547Z,492.70
2018-09-08T05:11:59.581Z,459.80
2018-09-08T05:12:59.640Z,484.40
2018-09-08T05:13:59.673Z,499.60
2018-09-08T05:14:59.712Z,482.10
2018-09-08T05:15:59.761Z,515.00
2018-09-08T05:16:59.791Z,478.50
2018-09-08T05:18:00.181Z,496.80
2018-09-08T05:18:59.970Z,534.10
2018-09-08T05:19:59.925Z,541.50
2018-09-08T05:20:59.941Z,575.60
2018-09-08T05:22:00.009Z,585.90
2018-09-08T05:23:00.044Z,596.50
2018-09-08T05:24:00.070Z,592.60
2018-09-08T05:25:00.111Z,610.00
2018-09-08T05:26:00.176Z,612.20
2018-09-08T05:27:00.213Z,615.30
2018-09-08T05:28:00.277Z,642.20
2018-09-08T05:29:00.588Z,626.00
2018-09-08T05:30:00.410Z,618.60
2018-09-08T05:31:00.361Z,612.30
2018-09-08T05:32:00.390Z,614.70
2018-09-08T05:33:00.443Z,638.70
2018-09-08T05:34:00.486Z,648.00
2018-09-08T05:35:00.551Z,651.50
2018-09-08T05:36:00.569Z,634.90
2018-09-08T05:37:00.622Z,650.30
2018-09-08T05:38:00.668Z,635.50
2018-09-08T05:39:00.698Z,653.20
2018-09-08T05:40:00.981Z,662.90
2018-09-08T05:41:00.786Z,626.20
2018-09-08T05:42:00.811Z,628.20
2018-09-08T05:43:00.901Z,650.50
2018-09-08T05:44:00.907Z,622.80
2018-09-08T05:45:00.972Z,610.60
2018-09-08T05:46:01.113Z,629.60
2018-09-08T05:47:01.040Z,614.90
2018-09-08T05:48:01.093Z,687.50
2018-09-08T05:49:01.103Z,680.70
2018-09-08T05:50:01.151Z,677.70
2018-09-08T05:51:01.491Z,674.30
2018-09-08T05:52:01.257Z,654.70
2018-09-08T05:53:01.279Z,648.10
2018-09-08T05:54:01.319Z,635.00
2018-09-08T05:55:01.370Z,638.20
2018-09-08T05:56:01.384Z,628.30
2018-09-08T05:57:01.567Z,651.00
2018-09-08T05:58:01.514Z,644.00
2018-09-08T05:59:01.532Z,645.20
2018-09-08T06:00:01.585Z,649.30
2018-09-08T06:01:01.584Z,640.80
2018-09-08T06:02:01.663Z,651.00
2018-09-08T06:03:01.948Z,667.00
2018-09-08T06:04:01.715Z,664.20
2018-09-08T06:05:01.778Z,662.80
2018-09-08T06:06:01.807Z,665.60
2018-09-08T06:07:01.851Z,621.70
2018-09-08T06:08:01.890Z,611.50
2018-09-08T06:09:02.047Z,594.70
2018-09-08T06:10:02.028Z,595.50
2018-09-08T06:11:02.012Z,576.90
2018-09-08T06:12:02.059Z,585.90
2018-09-08T06:13:02.111Z,575.20
2018-09-08T06:14:02.131Z,550.60
2018-09-08T06:15:02.175Z,556.20
2018-09-08T06:16:02.228Z,546.60
2018-09-08T06:17:02.247Z,542.90
2018-09-08T06:18:02.294Z,553.30
2018-09-08T06:19:02.663Z,548.80
2018-09-08T06:20:02.406Z,545.20
2018-09-08T06:21:02.423Z,549.60
2018-09-08T06:22:02.468Z,541.60
2018-09-08T06:23:02.527Z,569.80
2018-09-08T06:24:02.558Z,563.20
2018-09-08T06:25:02.603Z,540.20
2018-09-08T06:26:02.639Z,550.00
2018-09-08T06:27:02.679Z,546.50
2018-09-08T06:28:02.709Z,529.10
2018-09-08T06:29:03.056Z,552.60
2018-09-08T06:30:02.815Z,536.90
2018-09-08T06:31:02.837Z,566.00
2018-09-08T06:32:02.878Z,534.30
2018-09-08T06:33:02.931Z,557.40
2018-09-08T06:34:02.975Z,551.90
2018-09-08T06:35:03.048Z,553.40
2018-09-08T06:36:03.033Z,565.00
2018-09-08T06:37:03.079Z,574.10
2018-09-08T06:38:03.135Z,573.70
2018-09-08T06:39:03.166Z,580.40
2018-09-08T06:40:03.467Z,598.80
2018-09-08T06:41:03.239Z,599.10
2018-09-08T06:42:03.293Z,583.70
2018-09-08T06:43:03.329Z,610.20
2018-09-08T06:44:03.358Z,596.60
2018-09-08T06:45:03.609Z,585.70
2018-09-08T06:46:03.559Z,605.30
2018-09-08T06:47:03.496Z,659.70
2018-09-08T06:48:03.542Z,665.70
2018-09-08T06:49:03.577Z,660.50
2018-09-08T06:50:03.627Z,646.30
2018-09-08T06:51:03.661Z,664.50
2018-09-08T06:52:04.024Z,663.70
2018-09-08T06:53:03.744Z,650.80
2018-09-08T06:54:03.831Z,679.40
2018-09-08T06:55:03.815Z,653.90
2018-09-08T06:56:03.874Z,651.50
2018-09-08T06:57:03.934Z,646.90
2018-09-08T06:58:04.140Z,644.10
2018-09-08T06:59:03.973Z,647.40
2018-09-08T07:00:04.040Z,639.60
2018-09-08T07:01:04.052Z,628.30
2018-09-08T07:02:04.104Z,610.00
2018-09-08T07:03:04.135Z,623.30
2018-09-08T07:04:04.486Z,611.20
2018-09-08T07:05:04.274Z,607.30
2018-09-08T07:06:04.270Z,612.10
2018-09-08T07:07:04.364Z,615.30
2018-09-08T07:08:04.350Z,616.40
2018-09-08T07:09:04.391Z,619.10
2018-09-08T07:10:04.451Z,607.40
2018-09-08T07:11:04.583Z,566.00
2018-09-08T07:12:04.519Z,611.80
2018-09-08T07:13:04.603Z,567.60
2018-09-08T07:14:04.598Z,604.80
2018-09-08T07:15:04.664Z,589.90
2018-09-08T07:16:04.929Z,592.90
2018-09-08T07:17:04.719Z,573.80
2018-09-08T07:18:04.745Z,584.10
2018-09-08T07:19:04.807Z,584.80
2018-09-08T07:20:04.847Z,606.90
2018-09-08T07:21:04.873Z,602.20
2018-09-08T07:22:05.071Z,588.90
2018-09-08T07:23:04.973Z,600.60
2018-09-08T07:24:04.998Z,600.40
2018-09-08T07:25:05.058Z,609.50
2018-09-08T07:26:05.064Z,623.40
2018-09-08T07:27:05.107Z,608.30
2018-09-08T07:28:05.162Z,615.00
2018-09-08T07:29:05.211Z,626.00
2018-09-08T07:30:05.236Z,616.00
2018-09-08T07:31:05.332Z,615.30
2018-09-08T07:32:05.629Z,608.40
2018-09-08T07:33:05.382Z,643.80
2018-09-08T07:34:05.415Z,631.30
2018-09-08T07:35:05.468Z,622.80
2018-09-08T07:36:05.494Z,614.60
2018-09-08T07:37:05.504Z,636.30
2018-09-08T07:38:05.561Z,653.20
2018-09-08T07:39:05.614Z,610.50
2018-09-08T07:40:05.655Z,634.10
2018-09-08T07:41:05.706Z,632.70
2018-09-08T07:42:05.831Z,655.10
2018-09-08T07:43:05.783Z,648.90
2018-09-08T07:44:05.818Z,638.30
2018-09-08T07:45:05.840Z,670.60
2018-09-08T07:46:05.922Z,668.00
2018-09-08T07:47:06.222Z,646.30
2018-09-08T07:48:05.977Z,646.40
2018-09-08T07:49:06.016Z,656.80
2018-09-08T07:50:06.047Z,652.20
2018-09-08T07:51:06.075Z,654.30
2018-09-08T07:52:06.151Z,650.90
2018-09-08T07:53:06.296Z,673.50
2018-09-08T07:54:06.310Z,656.30
2018-09-08T07:55:06.243Z,660.90
2018-09-08T07:56:06.295Z,676.90
2018-09-08T07:57:06.390Z,679.70
2018-09-08T07:58:06.606Z,692.30
2018-09-08T07:59:06.401Z,675.10
2018-09-08T08:00:06.450Z,684.90
2018-09-08T08:01:06.492Z,682.20
2018-09-08T08:02:06.525Z,661.70
2018-09-08T08:03:06.584Z,698.20
2018-09-08T08:04:06.721Z,694.40
2018-09-08T08:05:06.632Z,693.90
2018-09-08T08:06:06.711Z,690.70
2018-09-08T08:07:06.736Z,718.60
2018-09-08T08:08:06.768Z,736.50
2018-09-08T08:09:06.825Z,710.60
2018-09-08T08:10:06.864Z,731.60
2018-09-08T08:11:06.887Z,731.30
2018-09-08T08:12:06.954Z,726.80
2018-09-08T08:13:06.980Z,733.70
2018-09-08T08:14:07.280Z,732.90
2018-09-08T08:15:07.072Z,727.00
2018-09-08T08:16:07.092Z,714.20
2018-09-08T08:17:07.116Z,748.40
2018-09-08T08:18:07.180Z,719.20
2018-09-08T08:19:07.472Z,730.80
2018-09-08T08:20:07.246Z,686.20
2018-09-08T08:21:07.287Z,730.70
2018-09-08T08:22:07.345Z,688.20
2018-09-08T08:23:07.448Z,735.90
2018-09-08T08:24:07.411Z,722.00
2018-09-08T08:25:07.694Z,701.40
2018-09-08T08:26:07.533Z,716.90
2018-09-08T08:27:07.508Z,729.90
2018-09-08T08:28:07.585Z,707.30
2018-09-08T08:29:07.616Z,723.40
2018-09-08T08:30:07.687Z,722.40
2018-09-08T08:31:07.979Z,701.70
2018-09-08T08:32:07.736Z,699.50
2018-09-08T08:33:07.788Z,723.90
2018-09-08T08:34:07.817Z,724.40
2018-09-08T08:35:07.859Z,727.40
2018-09-08T08:36:07.908Z,718.60
2018-09-08T08:37:08.259Z,735.70
2018-09-08T08:38:08.002Z,753.70
2018-09-08T08:39:08.019Z,715.90
2018-09-08T08:40:08.104Z,700.20
2018-09-08T08:41:08.096Z,721.50
2018-09-08T08:42:08.122Z,697.60
2018-09-08T08:43:08.491Z,711.30
2018-09-08T08:44:08.224Z,686.50
2018-09-08T08:45:08.313Z,713.30
2018-09-08T08:46:08.300Z,711.80
2018-09-08T08:47:08.342Z,702.00
2018-09-08T08:48:08.375Z,726.80
2018-09-08T08:49:08.668Z,736.70
2018-09-08T08:50:08.461Z,741.20
2018-09-08T08:51:08.498Z,724.00
2018-09-08T08:52:08.529Z,715.40
2018-09-08T08:53:08.576Z,750.90
2018-09-08T08:54:08.644Z,718.90
2018-09-08T08:55:08.895Z,712.40
2018-09-08T08:56:08.743Z,713.60
2018-09-08T08:57:08.718Z,715.20
2018-09-08T08:58:08.780Z,719.70
2018-09-08T08:59:08.833Z,725.80
2018-09-08T09:00:08.855Z,708.10
2018-09-08T09:01:09.144Z,699.20
2018-09-08T09:02:08.934Z,729.40
2018-09-08T09:03:08.999Z,716.00
2018-09-08T09:04:09.042Z,714.00
2018-09-08T09:05:09.098Z,698.70
2018-09-08T09:06:09.405Z,738.40
2018-09-08T09:07:09.148Z,704.10
2018-09-08T09:08:09.179Z,687.70
2018-09-08T09:09:09.287Z,694.70
2018-09-08T09:10:09.270Z,715.30
2018-09-08T09:11:09.316Z,734.70
2018-09-08T09:12:09.587Z,724.90
2018-09-08T09:13:09.449Z,728.90
2018-09-08T09:14:09.425Z,702.40
2018-09-08T09:15:09.863Z,700.90
2018-09-08T09:16:09.506Z,708.60
2018-09-08T09:17:09.539Z,699.20
2018-09-08T09:18:09.573Z,693.90
2018-09-08T09:19:09.880Z,698.70
2018-09-08T09:20:09.658Z,706.30
2018-09-08T09:21:09.710Z,715.40
2018-09-08T09:22:09.742Z,697.20
2018-09-08T09:23:09.790Z,712.70
2018-09-08T09:24:09.859Z,713.20
2018-09-08T09:25:09.868Z,681.90
2018-09-08T09:26:09.903Z,652.00
2018-09-08T09:27:09.942Z,643.80
2018-09-08T09:28:10.028Z,659.30
2018-09-08T09:29:10.084Z,660.50
2018-09-08T09:30:10.362Z,652.70
2018-09-08T09:31:10.110Z,654.00
2018-09-08T09:32:10.185Z,653.00
2018-09-08T09:33:10.241Z,632.50
2018-09-08T09:34:10.240Z,629.10
2018-09-08T09:35:10.286Z,638.90
2018-09-08T09:36:10.580Z,654.30
2018-09-08T09:37:10.436Z,666.20
2018-09-08T09:38:10.412Z,684.80
2018-09-08T09:39:10.431Z,678.80
2018-09-08T09:40:10.524Z,705.50
2018-09-08T09:41:10.810Z,732.30
2018-09-08T09:42:10.559Z,754.00
2018-09-08T09:43:10.609Z,758.90
2018-09-08T09:44:10.650Z,724.20
2018-09-08T09:45:10.666Z,738.90
2018-09-08T09:46:10.710Z,742.30
2018-09-08T09:47:10.763Z,738.10
2018-09-08T09:48:10.789Z,751.10
2018-09-08T09:49:10.842Z,750.80
2018-09-08T09:50:10.904Z,756.70
2018-09-08T09:51:10.961Z,753.40
2018-09-08T09:52:11.224Z,704.50
2018-09-08T09:53:11.076Z,722.40
2018-09-08T09:54:11.064Z,719.30
2018-09-08T09:55:11.095Z,726.90
2018-09-08T09:56:11.131Z,708.00
2018-09-08T09:57:11.183Z,678.40
2018-09-08T09:58:11.200Z,672.50
2018-09-08T09:59:11.490Z,681.10
2018-09-08T10:00:11.276Z,675.40
2018-09-08T10:01:11.488Z,658.00
2018-09-08T10:02:11.430Z,670.90
2018-09-08T10:03:11.406Z,672.60
2018-09-08T10:04:11.443Z,664.30
2018-09-08T10:05:11.762Z,668.80
2018-09-08T10:06:11.536Z,657.90
2018-09-08T10:07:11.595Z,659.80
2018-09-08T10:08:11.633Z,656.20
2018-09-08T10:09:11.682Z,637.00
2018-09-08T10:10:11.725Z,628.70
2018-09-08T10:11:12.055Z,634.90
2018-09-08T10:12:11.863Z,619.90
2018-09-08T10:13:11.844Z,588.00
2018-09-08T10:14:11.889Z,575.70
2018-09-08T10:15:11.937Z,539.30
2018-09-08T10:16:12.249Z,509.30
2018-09-08T10:17:11.997Z,482.30
2018-09-08T10:18:12.068Z,473.70
2018-09-08T10:19:12.157Z,388.90
2018-09-08T10:20:12.153Z,385.10
2018-09-08T10:21:12.198Z,342.60
2018-09-08T10:22:12.234Z,318.00
2018-09-08T10:23:12.467Z,313.10
2018-09-08T10:24:12.344Z,306.00
2018-09-08T10:25:12.378Z,287.60
2018-09-08T10:26:12.436Z,282.40
2018-09-08T10:27:12.735Z,284.20
2018-09-08T10:28:12.494Z,264.00
2018-09-08T10:29:12.587Z,242.60
2018-09-08T10:30:12.649Z,239.30
2018-09-08T10:31:12.648Z,241.60
2018-09-08T10:32:13.214Z,249.40
2018-09-08T10:33:12.777Z,255.20
2018-09-08T10:34:12.799Z,257.90
2018-09-08T10:35:12.895Z,266.00
2018-09-08T10:36:12.882Z,256.10
2018-09-08T10:37:13.240Z,259.20
2018-09-08T10:38:12.987Z,260.20
2018-09-08T10:39:13.026Z,274.20
2018-09-08T10:40:13.148Z,262.10
2018-09-08T10:41:13.114Z,262.90
2018-09-08T10:42:13.182Z,270.70
2018-09-08T10:43:13.191Z,262.80
2018-09-08T10:44:13.273Z,259.20
2018-09-08T10:45:13.307Z,238.50
2018-09-08T10:46:13.366Z,224.80
2018-09-08T10:47:13.420Z,243.50
2018-09-08T10:48:13.676Z,243.70
2018-09-08T10:49:13.532Z,248.70
2018-09-08T10:50:13.545Z,254.00
2018-09-08T10:51:13.594Z,272.00
2018-09-08T10:52:13.686Z,272.50
2018-09-08T10:53:13.677Z,281.30
2018-09-08T10:54:13.725Z,279.60
2018-09-08T10:55:14.080Z,264.90
2018-09-08T10:56:13.832Z,257.00
2018-09-08T10:57:13.867Z,251.50
2018-09-08T10:58:13.963Z,245.30
2018-09-08T10:59:13.980Z,239.30
2018-09-08T11:00:14.022Z,243.20
2018-09-08T11:01:14.314Z,240.90
2018-09-08T11:02:14.535Z,299.90
2018-09-08T11:03:14.203Z,232.00
2018-09-08T11:04:14.217Z,144.10
2018-09-08T11:05:14.252Z,154.00
2018-09-08T11:06:14.342Z,188.20
2018-09-08T11:07:14.356Z,222.30
2018-09-08T11:08:14.405Z,250.10
2018-09-08T11:09:14.443Z,253.90
2018-09-08T11:10:14.480Z,271.20
2018-09-08T11:11:14.783Z,275.80
2018-09-08T11:12:14.586Z,229.50
2018-09-08T11:13:14.642Z,223.30
2018-09-08T11:14:14.684Z,237.40
2018-09-08T11:15:14.703Z,203.50
2018-09-08T11:16:14.764Z,186.50
2018-09-08T11:17:15.075Z,228.60
2018-09-08T11:18:14.847Z,294.50
2018-09-08T11:19:14.898Z,219.40
2018-09-08T11:20:14.943Z,192.30
2018-09-08T11:21:14.990Z,198.30
2018-09-08T11:22:15.305Z,180.50
2018-09-08T11:23:15.106Z,302.60
2018-09-08T11:24:15.133Z,170.50
2018-09-08T11:25:15.181Z,191.60
2018-09-08T11:26:15.226Z,183.30
2018-09-08T11:27:15.278Z,186.10
2018-09-08T11:28:15.314Z,210.80
2018-09-08T11:29:15.389Z,203.00
2018-09-08T11:30:15.407Z,197.50
2018-09-08T11:31:15.477Z,214.60
2018-09-08T11:32:15.518Z,209.70
2018-09-08T11:33:15.829Z,227.60
2018-09-08T11:34:15.625Z,230.50
2018-09-08T11:35:15.651Z,258.60
2018-09-08T11:36:15.713Z,247.10
2018-09-08T11:37:15.749Z,264.00
2018-09-08T11:38:15.909Z,321.70
2018-09-08T11:39:15.835Z,332.80
2018-09-08T11:40:15.900Z,337.10
2018-09-08T11:41:15.930Z,408.50
2018-09-08T11:42:16.033Z,387.80
2018-09-08T11:43:16.035Z,365.60
2018-09-08T11:44:16.342Z,346.40
2018-09-08T11:45:16.129Z,309.20
2018-09-08T11:46:16.195Z,396.70
2018-09-08T11:47:16.213Z,395.30
2018-09-08T11:48:16.321Z,371.30
2018-09-08T11:49:16.334Z,307.90
2018-09-08T11:50:16.371Z,527.00
2018-09-08T11:51:16.679Z,285.10
2018-09-08T11:52:16.446Z,298.10
2018-09-08T11:53:16.516Z,259.80
2018-09-08T11:54:16.580Z,215.30
2018-09-08T11:55:16.628Z,212.60
2018-09-08T11:56:17.004Z,182.30
2018-09-08T11:57:16.730Z,335.10
2018-09-08T11:58:16.764Z,156.10
2018-09-08T11:59:16.825Z,190.50
2018-09-08T12:00:16.909Z,197.50
2018-09-08T12:01:16.923Z,216.30
2018-09-08T12:02:17.036Z,210.70
2018-09-08T12:03:17.337Z,230.20
2018-09-08T12:04:17.110Z,235.10
2018-09-08T12:05:17.139Z,230.50
2018-09-08T12:06:17.220Z,205.50
2018-09-08T12:07:17.235Z,223.20
2018-09-08T12:08:17.281Z,221.50
2018-09-08T12:09:17.587Z,203.40
2018-09-08T12:10:17.400Z,237.80
2018-09-08T12:11:17.487Z,204.50
2018-09-08T12:12:17.493Z,201.80
2018-09-08T12:13:17.526Z,204.80
2018-09-08T12:14:17.611Z,201.90
2018-09-08T12:15:17.941Z,216.80
2018-09-08T12:16:17.722Z,234.90
2018-09-08T12:17:17.741Z,217.40
2018-09-08T12:18:17.827Z,187.50
2018-09-08T12:19:17.854Z,202.10
2018-09-08T12:20:17.914Z,192.90
2018-09-08T12:21:18.216Z,203.10
2018-09-08T12:22:18.119Z,205.20
2018-09-08T12:23:18.087Z,207.80
2018-09-08T12:24:18.128Z,196.30
2018-09-08T12:25:18.184Z,208.40
2018-09-08T12:26:18.235Z,182.20
2018-09-08T12:27:18.533Z,181.70
2018-09-08T12:28:18.376Z,175.30
2018-09-08T12:29:18.395Z,155.50